createdAt,value
2022-09-18T00:00:14.493Z,10.57
2022-09-18T00:01:12.825Z,9.40
2022-09-18T00:02:09.680Z,9.10
2022-09-18T00:03:06.569Z,9.18
2022-09-18T00:04:05.266Z,9.00
2022-09-18T00:05:02.034Z,8.82
2022-09-18T00:05:58.861Z,9.70
2022-09-18T00:06:55.626Z,10.23
2022-09-18T00:07:52.556Z,9.55
2022-09-18T00:08:52.863Z,9.67
2022-09-18T00:09:49.719Z,9.20
2022-09-18T00:10:49.456Z,10.30
2022-09-18T00:11:47.358Z,9.37
2022-09-18T00:12:44.134Z,9.50
2022-09-18T00:13:41.040Z,9.65
2022-09-18T00:14:37.789Z,10.45
2022-09-18T00:15:34.571Z,9.67
2022-09-18T00:16:34.400Z,11.37
2022-09-18T00:17:31.775Z,9.70
2022-09-18T00:18:30.539Z,10.30
2022-09-18T00:19:27.456Z,12.40
2022-09-18T00:20:24.342Z,11.00
2022-09-18T00:21:24.144Z,12.40
2022-09-18T00:22:20.809Z,11.63
2022-09-18T00:23:18.603Z,13.18
2022-09-18T00:24:18.001Z,13.15
2022-09-18T00:25:15.355Z,13.90
2022-09-18T00:26:16.264Z,12.55
2022-09-18T00:27:21.499Z,12.45
2022-09-18T00:28:52.437Z,12.27
2022-09-18T00:30:28.352Z,13.07
2022-09-18T00:33:37.712Z,12.48
2022-09-18T00:34:34.940Z,9.73
2022-09-18T00:35:32.212Z,10.75
2022-09-18T00:36:29.957Z,10.77
2022-09-18T00:37:28.303Z,9.40
2022-09-18T00:38:25.162Z,9.68
2022-09-18T00:39:22.655Z,8.73
2022-09-18T00:40:19.687Z,9.60
2022-09-18T00:41:27.200Z,9.73
2022-09-18T00:42:24.150Z,8.17
2022-09-18T00:43:23.626Z,8.60
2022-09-18T00:44:47.613Z,8.40
2022-09-18T00:45:44.867Z,7.10
2022-09-18T00:46:42.426Z,6.90
2022-09-18T00:47:42.954Z,7.07
2022-09-18T00:48:58.135Z,7.00
2022-09-18T00:50:20.439Z,6.43
2022-09-18T00:51:17.946Z,5.80
2022-09-18T00:52:14.854Z,6.45
2022-09-18T00:53:11.755Z,5.82
2022-09-18T00:54:22.137Z,6.00
2022-09-18T00:55:22.423Z,5.57
2022-09-18T00:56:19.282Z,5.78
2022-09-18T00:57:21.923Z,5.60
2022-09-18T00:58:18.913Z,4.93
2022-09-18T00:59:17.993Z,5.43
2022-09-18T01:00:15.166Z,5.53
2022-09-18T01:01:12.934Z,4.70
2022-09-18T01:02:10.121Z,5.30
2022-09-18T01:03:07.047Z,4.85
2022-09-18T01:04:03.979Z,4.80
2022-09-18T01:05:00.973Z,4.70
2022-09-18T01:06:15.307Z,5.40
2022-09-18T01:07:36.712Z,4.97
2022-09-18T01:08:56.423Z,5.10
2022-09-18T01:10:11.771Z,5.30
2022-09-18T01:11:27.075Z,4.88
2022-09-18T01:12:30.769Z,5.03
2022-09-18T01:13:49.707Z,6.25
2022-09-18T01:14:56.205Z,6.90
2022-09-18T01:16:42.167Z,6.80
2022-09-18T01:18:01.630Z,7.45
2022-09-18T01:19:07.165Z,7.30
2022-09-18T01:20:40.439Z,7.67
2022-09-18T01:21:40.387Z,8.35
2022-09-18T01:22:58.640Z,9.20
2022-09-18T01:24:07.723Z,8.65
2022-09-18T01:25:27.479Z,8.43
2022-09-18T01:26:36.299Z,8.60
2022-09-18T01:27:41.905Z,10.13
2022-09-18T01:28:42.654Z,10.27
2022-09-18T01:29:50.929Z,10.60
2022-09-18T01:30:50.679Z,10.30
2022-09-18T01:32:03.130Z,11.02
2022-09-18T01:33:07.196Z,10.52
2022-09-18T01:34:18.486Z,11.18
2022-09-18T01:35:40.521Z,11.40
2022-09-18T01:36:38.256Z,12.05
2022-09-18T01:38:02.657Z,13.18
2022-09-18T01:39:21.658Z,13.93
2022-09-18T01:40:54.028Z,13.75
2022-09-18T01:43:08.933Z,15.07
2022-09-18T01:44:10.389Z,15.02
2022-09-18T01:45:09.480Z,16.05
2022-09-18T01:46:09.209Z,17.27
2022-09-18T01:47:09.833Z,18.17
2022-09-18T01:48:11.224Z,18.33
2022-09-18T01:49:29.263Z,14.25
2022-09-18T01:50:27.474Z,15.20
2022-09-18T01:51:51.360Z,15.25
2022-09-18T01:53:03.738Z,14.40
2022-09-18T01:54:05.009Z,13.38
2022-09-18T01:55:02.208Z,14.18
2022-09-18T01:56:05.494Z,13.27
2022-09-18T01:57:11.606Z,15.05
2022-09-18T01:58:13.605Z,12.63
2022-09-18T01:59:13.585Z,13.55
2022-09-18T02:00:12.021Z,15.38
2022-09-18T02:01:13.338Z,14.25
2022-09-18T02:02:15.257Z,14.40
2022-09-18T02:03:16.948Z,13.35
2022-09-18T02:04:18.231Z,14.38
2022-09-18T02:05:24.928Z,14.27
2022-09-18T02:06:26.350Z,14.23
2022-09-18T02:07:36.272Z,15.23
2022-09-18T02:08:50.482Z,13.87
2022-09-18T02:09:47.769Z,14.88
2022-09-18T02:10:56.453Z,14.65
2022-09-18T02:11:54.073Z,14.88
2022-09-18T02:12:52.840Z,15.60
2022-09-18T02:14:01.155Z,13.57
2022-09-18T02:14:59.617Z,13.93
2022-09-18T02:16:01.497Z,9.50
2022-09-18T02:17:02.118Z,11.63
2022-09-18T02:18:00.963Z,9.75
2022-09-18T02:18:59.507Z,10.57
2022-09-18T02:20:05.523Z,11.93
2022-09-18T02:21:02.545Z,9.47
2022-09-18T02:21:59.616Z,8.40
2022-09-18T02:22:58.415Z,7.55
2022-09-18T02:23:56.499Z,6.45
2022-09-18T02:24:53.895Z,5.13
2022-09-18T02:25:53.512Z,5.20
2022-09-18T02:26:52.087Z,4.03
2022-09-18T02:27:51.057Z,3.72
2022-09-18T02:28:48.365Z,3.55
2022-09-18T02:29:45.825Z,3.30
2022-09-18T02:30:42.513Z,3.85
2022-09-18T02:31:39.730Z,3.58
2022-09-18T02:32:37.582Z,3.72
2022-09-18T02:33:36.059Z,3.60
2022-09-18T02:34:32.920Z,3.20
2022-09-18T02:35:35.443Z,3.57
2022-09-18T02:36:38.288Z,3.10
2022-09-18T02:37:37.813Z,3.00
2022-09-18T02:38:46.293Z,2.47
2022-09-18T02:40:08.173Z,2.58
2022-09-18T02:41:19.186Z,2.80
2022-09-18T02:42:29.695Z,2.55
2022-09-18T02:43:45.624Z,2.33
2022-09-18T02:47:30.259Z,2.42
2022-09-18T02:48:48.375Z,2.45
2022-09-18T02:50:11.394Z,3.13
2022-09-18T02:51:13.565Z,3.22
2022-09-18T02:52:23.393Z,3.35
2022-09-18T02:53:42.491Z,4.20
2022-09-18T02:54:57.407Z,6.45
2022-09-18T02:56:00.346Z,8.52
2022-09-18T02:56:59.483Z,8.20
2022-09-18T02:57:59.317Z,9.55
2022-09-18T02:59:07.324Z,10.48
2022-09-18T03:00:05.328Z,12.05
2022-09-18T03:01:03.670Z,12.38
2022-09-18T03:02:00.563Z,12.55
2022-09-18T03:03:01.044Z,12.60
2022-09-18T03:04:05.559Z,11.38
2022-09-18T03:05:02.580Z,13.38
2022-09-18T03:05:59.733Z,16.77
2022-09-18T03:06:56.703Z,16.83
2022-09-18T03:07:56.492Z,14.90
2022-09-18T03:08:53.763Z,16.42
2022-09-18T03:09:50.739Z,16.92
2022-09-18T03:10:47.676Z,16.88
2022-09-18T03:11:44.890Z,18.00
2022-09-18T03:12:41.696Z,18.65
2022-09-18T03:13:38.859Z,18.90
2022-09-18T03:14:35.877Z,15.00
2022-09-18T03:15:32.823Z,18.33
2022-09-18T03:16:29.587Z,14.97
2022-09-18T03:17:26.568Z,17.80
2022-09-18T03:18:23.695Z,18.67
2022-09-18T03:19:20.645Z,17.98
2022-09-18T03:20:17.669Z,17.08
2022-09-18T03:21:14.515Z,17.03
2022-09-18T03:22:11.832Z,17.20
2022-09-18T03:23:09.601Z,16.67
2022-09-18T03:24:06.599Z,17.20
2022-09-18T03:25:03.534Z,16.48
2022-09-18T03:26:00.508Z,13.80
2022-09-18T03:26:57.707Z,16.42
2022-09-18T03:27:57.266Z,13.60
2022-09-18T03:28:54.280Z,13.13
2022-09-18T03:29:51.191Z,14.65
2022-09-18T03:30:50.062Z,13.02
2022-09-18T03:31:47.118Z,14.70
2022-09-18T03:32:44.336Z,13.77
2022-09-18T03:33:41.251Z,13.30
2022-09-18T03:34:40.788Z,12.25
2022-09-18T03:35:37.807Z,12.07
2022-09-18T03:36:34.822Z,12.32
2022-09-18T03:37:31.917Z,12.48
2022-09-18T03:38:28.765Z,11.30
2022-09-18T03:39:25.770Z,14.68
2022-09-18T03:40:23.359Z,13.30
2022-09-18T03:41:20.315Z,13.80
2022-09-18T03:42:17.345Z,12.52
2022-09-18T03:43:14.140Z,12.18
2022-09-18T03:44:11.486Z,12.07
2022-09-18T03:45:09.132Z,12.85
2022-09-18T03:46:06.125Z,12.77
2022-09-18T03:47:03.413Z,14.75
2022-09-18T03:48:00.434Z,15.35
2022-09-18T03:48:57.731Z,14.57
2022-09-18T03:49:54.699Z,16.08
2022-09-18T03:50:51.678Z,15.85
2022-09-18T03:51:48.653Z,17.08
2022-09-18T03:52:50.936Z,18.05
2022-09-18T03:53:48.399Z,18.38
2022-09-18T03:54:45.471Z,19.35
2022-09-18T03:55:42.312Z,19.65
2022-09-18T03:56:39.183Z,20.48
2022-09-18T03:57:36.114Z,22.17
2022-09-18T03:58:32.953Z,21.50
2022-09-18T03:59:29.774Z,24.45
2022-09-18T04:00:27.338Z,26.17
2022-09-18T04:01:24.310Z,23.70
2022-09-18T04:02:21.283Z,28.90
2022-09-18T04:03:18.698Z,26.92
2022-09-18T04:04:15.935Z,28.85
2022-09-18T04:05:13.012Z,27.23
2022-09-18T04:06:09.970Z,27.92
2022-09-18T04:07:08.555Z,25.55
2022-09-18T04:08:05.676Z,24.60
2022-09-18T04:09:02.815Z,26.33
2022-09-18T04:09:59.779Z,23.90
2022-09-18T04:10:57.019Z,25.98
2022-09-18T04:11:54.521Z,24.50
2022-09-18T04:12:51.377Z,28.23
2022-09-18T04:13:48.352Z,26.75
2022-09-18T04:14:45.130Z,25.67
2022-09-18T04:15:42.146Z,25.65
2022-09-18T04:16:39.301Z,25.40
2022-09-18T04:17:36.237Z,21.58
2022-09-18T04:18:33.813Z,24.85
2022-09-18T04:19:30.970Z,26.25
2022-09-18T04:20:28.022Z,26.27
2022-09-18T04:21:24.993Z,29.58
2022-09-18T04:22:22.540Z,26.17
2022-09-18T04:23:19.493Z,29.25
2022-09-18T04:24:16.618Z,24.52
2022-09-18T04:25:13.610Z,27.63
2022-09-18T04:26:10.508Z,27.17
2022-09-18T04:27:07.525Z,26.90
2022-09-18T04:28:04.539Z,26.70
2022-09-18T04:29:01.505Z,29.65
2022-09-18T04:29:58.503Z,25.05
2022-09-18T04:30:55.496Z,25.40
2022-09-18T04:31:52.490Z,27.00
2022-09-18T04:32:49.361Z,24.52
2022-09-18T04:33:46.554Z,26.63
2022-09-18T04:34:43.675Z,24.15
2022-09-18T04:35:41.677Z,24.52
2022-09-18T04:36:38.606Z,22.63
2022-09-18T04:37:36.071Z,23.23
2022-09-18T04:38:33.555Z,22.60
2022-09-18T04:39:32.493Z,19.73
2022-09-18T04:40:29.530Z,19.15
2022-09-18T04:41:26.570Z,17.98
2022-09-18T04:42:23.421Z,19.80
2022-09-18T04:43:20.632Z,19.17
2022-09-18T04:44:17.682Z,19.23
2022-09-18T04:45:14.712Z,18.52
2022-09-18T04:46:11.669Z,21.47
2022-09-18T04:47:09.001Z,19.98
2022-09-18T04:48:06.015Z,20.40
2022-09-18T04:49:03.322Z,18.83
2022-09-18T04:50:00.316Z,17.08
2022-09-18T04:50:57.277Z,18.70
2022-09-18T04:51:54.262Z,16.88
2022-09-18T04:52:51.254Z,16.75
2022-09-18T04:53:48.232Z,16.50
2022-09-18T04:54:45.255Z,17.45
2022-09-18T04:55:47.376Z,17.95
2022-09-18T04:56:44.386Z,17.63
2022-09-18T04:57:41.947Z,16.35
2022-09-18T04:58:38.868Z,16.48
2022-09-18T04:59:35.821Z,14.95
2022-09-18T05:00:33.364Z,15.80
2022-09-18T05:01:30.299Z,17.23
2022-09-18T05:02:27.367Z,14.98
2022-09-18T05:03:24.284Z,15.55
2022-09-18T05:04:21.212Z,15.63
2022-09-18T05:05:18.100Z,14.47
2022-09-18T05:06:14.968Z,15.23
2022-09-18T05:07:12.013Z,12.82
2022-09-18T05:08:08.943Z,15.17
2022-09-18T05:09:05.890Z,14.13
2022-09-18T05:10:02.875Z,13.05
2022-09-18T05:11:00.410Z,12.95
2022-09-18T05:11:57.305Z,12.98
2022-09-18T05:12:54.248Z,11.98
2022-09-18T05:13:56.672Z,13.32
2022-09-18T05:14:53.640Z,11.85
2022-09-18T05:15:54.698Z,11.15
2022-09-18T05:16:51.614Z,11.55
2022-09-18T05:17:48.580Z,10.60
2022-09-18T05:18:45.449Z,12.43
2022-09-18T05:19:43.074Z,11.63
2022-09-18T05:20:40.268Z,11.02
2022-09-18T05:21:37.187Z,10.63
2022-09-18T05:22:34.666Z,10.15
2022-09-18T05:23:31.719Z,11.18
2022-09-18T05:24:28.608Z,10.45
2022-09-18T05:25:29.724Z,10.30
2022-09-18T05:26:26.859Z,9.98
2022-09-18T05:27:26.916Z,10.18
2022-09-18T05:28:24.004Z,10.95
2022-09-18T05:29:21.003Z,9.65
2022-09-18T05:30:17.885Z,10.43
2022-09-18T05:31:14.925Z,9.77
2022-09-18T05:32:11.856Z,9.50
2022-09-18T05:33:10.110Z,9.00
2022-09-18T05:34:07.078Z,9.82
2022-09-18T05:35:04.266Z,8.40
2022-09-18T05:36:01.277Z,8.85
2022-09-18T05:36:58.255Z,8.85
2022-09-18T05:37:55.372Z,7.78
2022-09-18T05:38:52.409Z,8.38
2022-09-18T05:39:49.199Z,8.70
2022-09-18T05:40:46.209Z,9.05
2022-09-18T05:41:43.145Z,8.48
2022-09-18T05:42:45.940Z,9.43
2022-09-18T05:43:45.758Z,9.80
2022-09-18T05:44:42.590Z,8.88
2022-09-18T05:45:39.565Z,9.30
2022-09-18T05:46:36.453Z,9.32
2022-09-18T05:47:36.299Z,9.15
2022-09-18T05:48:33.103Z,8.67
2022-09-18T05:49:30.023Z,8.77
2022-09-18T05:50:27.936Z,9.35
2022-09-18T05:51:25.008Z,9.50
2022-09-18T06:07:37.399Z,10.70
2022-09-18T06:08:44.918Z,11.20
2022-09-18T06:09:51.639Z,10.65
2022-09-18T06:15:53.324Z,10.02
2022-09-18T06:17:03.131Z,10.07
2022-09-18T06:18:00.118Z,11.63
2022-09-18T06:18:56.858Z,12.25
2022-09-18T06:19:53.937Z,13.70
2022-09-18T06:20:58.472Z,13.50
2022-09-18T06:21:55.213Z,11.52
2022-09-18T06:22:52.020Z,11.32
2022-09-18T06:23:48.776Z,11.43
2022-09-18T06:24:45.467Z,13.88
2022-09-18T06:25:42.281Z,14.02
2022-09-18T06:26:39.191Z,13.68
2022-09-18T06:27:35.946Z,11.98
2022-09-18T06:28:34.110Z,12.57
2022-09-18T06:29:31.155Z,13.20
2022-09-18T06:30:28.749Z,12.90
2022-09-18T06:31:25.648Z,12.25
2022-09-18T06:32:22.401Z,13.45
2022-09-18T06:33:19.279Z,12.75
2022-09-18T06:34:16.507Z,12.60
2022-09-18T06:35:13.426Z,15.57
2022-09-18T06:36:11.971Z,18.08
2022-09-18T06:37:11.895Z,16.00
2022-09-18T06:38:10.173Z,15.90
2022-09-18T06:39:07.118Z,15.75
2022-09-18T06:40:05.192Z,15.05
2022-09-18T06:41:01.990Z,15.65
2022-09-18T06:42:00.472Z,15.20
2022-09-18T06:42:58.241Z,15.35
2022-09-18T06:43:54.978Z,13.70
2022-09-18T06:44:52.003Z,16.50
2022-09-18T06:46:07.596Z,17.23
2022-09-18T06:47:04.457Z,13.95
2022-09-18T06:48:02.897Z,14.75
2022-09-18T06:49:01.896Z,14.15
2022-09-18T06:49:59.360Z,15.00
2022-09-18T06:50:59.575Z,13.68
2022-09-18T06:51:56.354Z,16.23
2022-09-18T06:52:52.931Z,13.88
2022-09-18T06:53:49.694Z,14.10
2022-09-18T06:54:46.465Z,17.77
2022-09-18T06:55:43.251Z,14.73
2022-09-18T06:56:40.154Z,15.00
2022-09-18T06:57:36.905Z,15.63
2022-09-18T06:58:33.707Z,13.45
2022-09-18T06:59:31.029Z,12.10
2022-09-18T07:00:32.893Z,11.75
2022-09-18T07:01:30.947Z,13.55
2022-09-18T07:02:27.864Z,14.27
2022-09-18T07:03:24.721Z,13.13
2022-09-18T07:04:21.548Z,10.60
2022-09-18T07:05:18.339Z,10.55
2022-09-18T07:06:15.171Z,10.88
2022-09-18T07:07:12.206Z,12.05
2022-09-18T07:08:09.751Z,10.63
2022-09-18T07:09:06.518Z,9.80
2022-09-18T07:10:07.025Z,10.48
2022-09-18T07:11:05.975Z,8.30
2022-09-18T07:12:02.957Z,10.73
2022-09-18T07:13:00.180Z,10.82
2022-09-18T07:13:56.941Z,8.75
2022-09-18T07:14:54.164Z,10.93
2022-09-18T07:15:53.723Z,10.75
2022-09-18T07:16:50.696Z,9.35
2022-09-18T07:17:55.102Z,8.57
2022-09-18T07:19:09.772Z,9.95
2022-09-18T07:20:10.892Z,8.02
2022-09-18T07:21:08.180Z,8.95
2022-09-18T07:22:05.154Z,8.07
2022-09-18T07:23:02.304Z,8.60
2022-09-18T07:23:59.052Z,9.57
2022-09-18T07:24:55.994Z,9.40
2022-09-18T07:25:56.152Z,10.32
2022-09-18T07:26:52.947Z,9.05
2022-09-18T07:27:50.638Z,10.38
2022-09-18T07:28:47.594Z,10.85
2022-09-18T07:29:44.590Z,11.90
2022-09-18T07:30:41.645Z,10.15
2022-09-18T07:31:41.333Z,10.45
2022-09-18T07:32:38.384Z,9.52
2022-09-18T07:33:35.610Z,9.77
2022-09-18T07:34:32.386Z,10.93
2022-09-18T07:35:29.279Z,9.02
2022-09-18T07:36:26.870Z,10.30
2022-09-18T07:37:23.713Z,9.27
2022-09-18T07:38:23.268Z,9.50
2022-09-18T07:39:20.238Z,8.85
2022-09-18T07:40:17.293Z,9.23
2022-09-18T07:41:14.072Z,8.18
2022-09-18T07:42:13.957Z,9.85
2022-09-18T07:43:11.023Z,9.93
2022-09-18T07:44:07.865Z,9.60
2022-09-18T07:45:05.928Z,8.63
2022-09-18T07:46:03.168Z,7.93
2022-09-18T07:47:00.157Z,8.20
2022-09-18T07:48:03.599Z,8.88
2022-09-18T07:49:00.777Z,7.45
2022-09-18T07:49:57.726Z,7.45
2022-09-18T07:50:57.633Z,8.27
2022-09-18T07:51:54.373Z,7.40
2022-09-18T07:52:55.181Z,7.75
2022-09-18T07:53:52.021Z,7.40
2022-09-18T07:54:48.899Z,8.05
2022-09-18T07:55:49.973Z,8.50
2022-09-18T07:56:52.672Z,8.00
2022-09-18T07:57:55.373Z,9.20
2022-09-18T07:59:07.373Z,10.38
2022-09-18T08:00:08.089Z,9.93
2022-09-18T08:01:05.746Z,11.50
2022-09-18T08:02:02.693Z,12.07
2022-09-18T08:03:11.951Z,12.50
2022-09-18T08:04:10.467Z,12.15
2022-09-18T08:05:07.949Z,14.45
2022-09-18T08:06:05.007Z,13.75
2022-09-18T08:08:07.189Z,14.45
2022-09-18T08:09:04.267Z,15.82
2022-09-18T08:10:01.720Z,15.10
2022-09-18T08:10:59.338Z,15.52
2022-09-18T08:11:56.370Z,16.05
2022-09-18T08:12:56.183Z,16.98
2022-09-18T08:13:53.249Z,16.02
2022-09-18T08:14:50.647Z,15.82
2022-09-18T08:15:47.538Z,16.80
2022-09-18T08:16:45.870Z,15.98
2022-09-18T08:17:46.301Z,14.43
2022-09-18T08:18:43.969Z,16.85
2022-09-18T08:19:40.719Z,14.75
2022-09-18T08:20:38.956Z,15.23
2022-09-18T08:21:35.693Z,14.27
2022-09-18T08:22:32.528Z,13.30
2022-09-18T08:23:29.545Z,13.60
2022-09-18T08:25:31.885Z,14.88
2022-09-18T08:26:39.196Z,13.32
2022-09-18T08:27:37.052Z,14.95
2022-09-18T08:28:34.093Z,14.52
2022-09-18T08:29:31.192Z,15.20
2022-09-18T08:30:28.885Z,14.20
2022-09-18T08:31:30.745Z,13.73
2022-09-18T08:32:35.842Z,14.93
2022-09-18T08:33:33.615Z,14.48
2022-09-18T08:34:31.444Z,15.07
2022-09-18T08:35:29.336Z,16.10
2022-09-18T08:36:26.367Z,16.85
2022-09-18T08:37:23.270Z,14.98
2022-09-18T08:38:20.499Z,13.00
2022-09-18T08:39:17.566Z,15.95
2022-09-18T08:40:15.115Z,13.55
2022-09-18T08:41:32.924Z,13.82
2022-09-18T08:42:44.732Z,14.00
2022-09-18T08:44:01.421Z,14.35
2022-09-18T08:45:08.437Z,13.32
2022-09-18T08:46:23.220Z,13.50
2022-09-18T08:47:26.791Z,13.43
2022-09-18T08:48:31.970Z,13.65
2022-09-18T08:49:30.977Z,12.73
2022-09-18T08:50:36.288Z,15.57
2022-09-18T08:51:58.239Z,16.83
2022-09-18T08:53:25.355Z,16.58
2022-09-18T08:54:27.601Z,14.48
2022-09-18T08:55:30.389Z,18.52
2022-09-18T08:56:27.285Z,16.98
2022-09-18T08:57:35.801Z,16.38
2022-09-18T08:58:41.141Z,17.77
2022-09-18T08:59:42.096Z,15.80
2022-09-18T09:00:49.070Z,16.55
2022-09-18T09:01:55.977Z,17.65
2022-09-18T09:02:54.044Z,14.35
2022-09-18T09:03:56.401Z,15.00
2022-09-18T09:04:57.792Z,15.80
2022-09-18T09:06:46.724Z,15.93
2022-09-18T09:08:01.958Z,14.65
2022-09-18T09:09:22.864Z,12.48
2022-09-18T09:14:52.938Z,12.88
2022-09-18T09:16:15.703Z,11.43
2022-09-18T09:17:12.478Z,11.57
2022-09-18T09:18:45.846Z,13.90
2022-09-18T09:19:56.241Z,13.52
2022-09-18T09:21:02.697Z,13.48
2022-09-18T09:22:14.127Z,13.70
2022-09-18T09:26:07.283Z,12.55
2022-09-18T09:27:50.822Z,14.02
2022-09-18T09:28:50.745Z,13.32
2022-09-18T09:29:47.999Z,13.38
2022-09-18T09:30:46.431Z,13.60
2022-09-18T09:31:46.291Z,13.20
2022-09-18T09:33:25.401Z,13.45
2022-09-18T09:34:40.873Z,14.20
2022-09-18T09:35:42.203Z,14.98
2022-09-18T09:36:39.311Z,15.00
2022-09-18T09:37:41.155Z,14.65
2022-09-18T09:38:48.990Z,13.43
2022-09-18T09:39:52.477Z,14.68
2022-09-18T09:40:50.617Z,15.30
2022-09-18T09:41:58.280Z,14.00
2022-09-18T09:42:55.328Z,16.30
2022-09-18T09:44:20.312Z,15.05
2022-09-18T09:45:29.545Z,13.88
2022-09-18T09:46:32.509Z,13.40
2022-09-18T09:47:30.439Z,16.50
2022-09-18T09:48:49.244Z,14.75
2022-09-18T09:50:13.796Z,15.25
2022-09-18T09:51:15.992Z,13.55
2022-09-18T09:52:22.391Z,11.77
2022-09-18T09:53:19.447Z,14.00
2022-09-18T09:54:16.825Z,13.45
2022-09-18T09:55:32.298Z,11.30
2022-09-18T09:56:52.338Z,12.15
2022-09-18T09:58:04.810Z,9.68
2022-09-18T09:59:10.125Z,8.43
2022-09-18T10:00:34.005Z,9.82
2022-09-18T10:01:53.402Z,10.15
2022-09-18T10:03:01.472Z,10.93
2022-09-18T10:04:43.116Z,10.70
2022-09-18T10:05:44.433Z,10.25
2022-09-18T10:06:43.915Z,10.50
2022-09-18T10:12:55.433Z,10.85
2022-09-18T10:13:58.802Z,11.77
2022-09-18T10:14:56.244Z,10.32
2022-09-18T10:15:59.469Z,10.75
2022-09-18T10:16:57.186Z,9.63
2022-09-18T10:17:56.472Z,10.52
2022-09-18T10:18:53.353Z,10.77
2022-09-18T10:19:50.291Z,10.70
2022-09-18T10:20:47.271Z,10.23
2022-09-18T10:21:45.738Z,11.18
2022-09-18T10:22:42.794Z,11.02
2022-09-18T10:23:45.826Z,10.80
2022-09-18T10:25:57.112Z,9.77
2022-09-18T10:28:01.190Z,8.95
2022-09-18T10:29:00.577Z,8.98
2022-09-18T10:29:59.187Z,10.00
2022-09-18T10:31:01.351Z,10.02
2022-09-18T10:31:59.992Z,9.45
2022-09-18T10:32:56.874Z,9.20
2022-09-18T10:33:54.132Z,7.90
2022-09-18T10:34:51.126Z,7.57
2022-09-18T10:35:48.045Z,8.60
2022-09-18T10:36:46.318Z,8.98
2022-09-18T10:37:48.958Z,8.70
2022-09-18T10:38:46.895Z,9.88
2022-09-18T10:39:54.123Z,10.13
2022-09-18T10:40:51.210Z,10.00
2022-09-18T10:41:48.256Z,9.77
2022-09-18T10:42:45.130Z,10.23
2022-09-18T10:44:11.838Z,10.40
2022-09-18T10:45:22.760Z,9.68
2022-09-18T10:46:27.200Z,10.43
2022-09-18T10:47:28.932Z,9.15
2022-09-18T10:48:26.278Z,7.97
2022-09-18T10:50:07.412Z,8.68
2022-09-18T10:51:04.568Z,8.50
2022-09-18T10:52:32.715Z,9.55
2022-09-18T10:53:31.187Z,8.00
2022-09-18T10:54:32.125Z,8.95
2022-09-18T10:55:29.388Z,7.78
2022-09-18T10:56:26.335Z,8.45
2022-09-18T10:58:51.743Z,7.60
2022-09-18T10:59:50.071Z,7.97
2022-09-18T11:00:49.107Z,8.27
2022-09-18T11:01:46.162Z,8.25
2022-09-18T11:02:57.261Z,7.85
2022-09-18T11:04:08.396Z,7.95
2022-09-18T11:05:06.050Z,8.35
2022-09-18T11:06:04.964Z,8.30
2022-09-18T11:07:07.795Z,8.75
2022-09-18T11:09:26.983Z,7.88
2022-09-18T11:10:30.148Z,10.75
2022-09-18T11:12:03.004Z,26.83
2022-09-18T11:13:02.508Z,8.38
2022-09-18T11:14:26.389Z,8.05
2022-09-18T11:15:29.736Z,7.60
2022-09-18T11:17:39.916Z,7.50
2022-09-18T11:18:32.224Z,7.10
2022-09-18T11:21:28.320Z,7.68
2022-09-18T11:22:44.497Z,7.95
2022-09-18T11:23:58.239Z,8.30
2022-09-18T11:25:11.093Z,8.27
2022-09-18T11:26:32.123Z,8.02
2022-09-18T11:27:45.704Z,8.85
2022-09-18T11:29:07.916Z,8.55
2022-09-18T11:30:26.074Z,8.75
2022-09-18T11:31:30.529Z,8.98
2022-09-18T11:32:30.637Z,8.38
2022-09-18T11:33:56.985Z,8.48
2022-09-18T11:40:16.358Z,9.80
2022-09-18T11:41:35.357Z,8.48
2022-09-18T11:42:34.102Z,8.90
2022-09-18T11:43:35.136Z,9.70
2022-09-18T11:44:33.968Z,8.60
2022-09-18T11:45:52.662Z,8.40
2022-09-18T11:46:52.211Z,8.25
2022-09-18T11:47:54.874Z,9.35
2022-09-18T11:49:18.999Z,9.80
2022-09-18T11:50:19.127Z,8.77
2022-09-18T11:51:28.163Z,9.27
2022-09-18T11:52:36.800Z,8.00
2022-09-18T11:53:40.862Z,9.30
2022-09-18T11:54:42.716Z,9.07
2022-09-18T11:56:11.938Z,8.98
2022-09-18T11:57:16.890Z,8.40
2022-09-18T11:58:49.487Z,8.32
2022-09-18T12:01:11.581Z,8.23
2022-09-18T12:06:11.437Z,9.45
2022-09-18T12:07:40.089Z,9.77
2022-09-18T12:09:17.390Z,9.18
2022-09-18T12:10:44.959Z,9.60
2022-09-18T12:11:59.467Z,9.88
2022-09-18T12:13:33.818Z,9.38
2022-09-18T12:14:38.138Z,8.95
2022-09-18T12:19:24.509Z,9.95
2022-09-18T12:20:58.961Z,8.98
2022-09-18T12:22:15.879Z,7.93
2022-09-18T12:23:21.484Z,8.73
2022-09-18T12:24:18.432Z,8.02
2022-09-18T12:25:17.443Z,8.00
2022-09-18T12:26:31.310Z,7.10
2022-09-18T12:27:49.055Z,6.45
2022-09-18T12:28:54.526Z,7.03
2022-09-18T12:30:06.321Z,7.10
2022-09-18T12:31:32.006Z,7.32
2022-09-18T12:32:37.960Z,6.78
2022-09-18T12:33:46.602Z,6.25
2022-09-18T12:35:17.380Z,6.47
2022-09-18T12:38:02.848Z,6.72
2022-09-18T12:39:31.637Z,6.13
2022-09-18T12:41:12.954Z,6.72
2022-09-18T12:42:17.005Z,6.57
2022-09-18T12:43:38.829Z,6.75
2022-09-18T12:45:01.743Z,6.53
2022-09-18T12:46:11.625Z,6.90
2022-09-18T12:47:40.412Z,6.70
2022-09-18T12:48:52.083Z,6.47
2022-09-18T12:50:01.740Z,6.35
2022-09-18T12:51:01.612Z,6.70
2022-09-18T12:52:32.122Z,7.00
2022-09-18T12:53:50.984Z,6.60
2022-09-18T12:55:00.134Z,6.30
2022-09-18T12:56:07.718Z,6.10
2022-09-18T12:57:10.364Z,5.93
2022-09-18T12:58:32.531Z,6.60
2022-09-18T12:59:41.716Z,6.53
2022-09-18T13:00:39.039Z,7.03
2022-09-18T13:03:09.826Z,6.53
2022-09-18T13:04:20.312Z,6.70
2022-09-18T13:05:40.549Z,6.77
2022-09-18T13:06:45.917Z,7.60
2022-09-18T13:08:11.904Z,7.10
2022-09-18T13:09:23.873Z,8.43
2022-09-18T13:16:16.330Z,9.77
2022-09-18T13:18:39.820Z,10.88
2022-09-18T13:19:44.883Z,10.37
2022-09-18T13:20:45.235Z,10.97
2022-09-18T13:21:42.890Z,9.60
2022-09-18T13:22:40.245Z,10.73
2022-09-18T13:23:38.187Z,9.82
2022-09-18T13:24:35.443Z,9.07
2022-09-18T13:25:37.297Z,10.80
2022-09-18T13:26:37.998Z,13.98
2022-09-18T13:27:39.462Z,11.20
2022-09-18T13:28:43.158Z,10.82
2022-09-18T13:29:51.347Z,10.23
2022-09-18T13:31:07.422Z,11.10
2022-09-18T13:32:04.736Z,9.93
2022-09-18T13:33:02.094Z,11.70
2022-09-18T13:34:02.564Z,12.20
2022-09-18T13:35:02.141Z,11.17
2022-09-18T13:35:58.968Z,11.73
2022-09-18T13:36:56.059Z,10.77
2022-09-18T13:38:20.000Z,11.00
2022-09-18T13:39:23.950Z,10.75
2022-09-18T13:40:38.231Z,10.37
2022-09-18T13:41:46.974Z,10.67
2022-09-18T13:42:43.768Z,11.80
2022-09-18T13:43:51.668Z,12.02
2022-09-18T13:44:51.160Z,11.13
2022-09-18T13:45:51.613Z,11.83
2022-09-18T13:46:49.250Z,13.40
2022-09-18T13:48:13.283Z,15.30
2022-09-18T13:49:18.207Z,14.57
2022-09-18T13:50:18.865Z,15.75
2022-09-18T13:51:20.184Z,15.95
2022-09-18T13:52:29.305Z,18.60
2022-09-18T13:53:41.902Z,17.42
2022-09-18T13:54:38.781Z,18.55
2022-09-18T13:55:56.666Z,19.23
2022-09-18T13:57:05.008Z,19.67
2022-09-18T13:58:48.089Z,20.17
2022-09-18T13:59:45.903Z,22.77
2022-09-18T14:00:43.227Z,21.87
2022-09-18T14:01:43.334Z,22.93
2022-09-18T14:02:41.012Z,21.85
2022-09-18T14:03:41.241Z,23.05
2022-09-18T14:04:40.571Z,22.90
2022-09-18T14:05:40.756Z,24.30
2022-09-18T14:06:37.473Z,25.98
2022-09-18T14:07:34.171Z,28.05
2022-09-18T14:08:37.282Z,29.40
2022-09-18T14:09:45.743Z,30.13
2022-09-18T14:10:59.495Z,29.83
2022-09-18T14:12:11.453Z,30.98
2022-09-18T14:13:30.178Z,29.95
2022-09-18T14:14:29.116Z,35.35
2022-09-18T14:15:25.959Z,31.13
2022-09-18T14:16:24.132Z,34.80
2022-09-18T14:17:20.969Z,31.10
2022-09-18T14:18:21.230Z,35.55
2022-09-18T14:19:37.950Z,34.20
2022-09-18T14:20:34.805Z,35.67
2022-09-18T14:21:40.395Z,33.43
2022-09-18T14:22:40.344Z,29.17
2022-09-18T14:23:42.574Z,27.07
2022-09-18T14:24:53.440Z,33.28
2022-09-18T14:25:52.894Z,32.35
2022-09-18T14:26:57.349Z,30.50
2022-09-18T14:27:57.765Z,27.08
2022-09-18T14:29:10.888Z,33.03
2022-09-18T14:30:20.508Z,29.42
2022-09-18T14:31:40.394Z,29.70
2022-09-18T14:32:37.415Z,28.13
2022-09-18T14:36:55.480Z,25.95
2022-09-18T14:37:52.366Z,29.45
2022-09-18T14:38:49.595Z,24.73
2022-09-18T14:39:48.013Z,28.70
2022-09-18T14:40:54.341Z,24.95
2022-09-18T14:41:52.656Z,27.13
2022-09-18T14:42:50.473Z,31.67
2022-09-18T14:43:56.018Z,32.33
2022-09-18T14:45:02.931Z,32.10
2022-09-18T14:45:59.831Z,28.50
2022-09-18T14:47:00.810Z,29.73
2022-09-18T14:47:58.872Z,30.48
2022-09-18T14:48:55.768Z,32.38
2022-09-18T14:49:53.015Z,26.93
2022-09-18T14:51:00.744Z,29.85
2022-09-18T14:52:03.899Z,28.52
2022-09-18T14:53:27.681Z,31.87
2022-09-18T14:54:40.880Z,27.40